Time;durP1;ratioP1;P1;durP2;ratioP2;P2;SDS_P1;SDS_P2;PMS_P1;PMS_P2;Temp;Humidity;BMP_temperature;BMP_pressure;BME280_temperature;BME280_humidity;BME280_pressure;Samples;Min_cycle;Max_cycle;Signal;HPM_P1;HPM_P2
2022/08/10 00:02:38;;;;;;;7.95;4.50;;;19.60;99.90;;;;;;5047338;28;21042;-79
2022/08/10 00:05:27;;;;;;;6.20;4.30;;;19.60;99.90;;;;;;5050536;28;20224;-77
2022/08/10 00:08:31;;;;;;;8.68;4.60;;;19.40;99.90;;;;;;5044805;28;20315;-78
2022/08/10 00:11:20;;;;;;;7.15;4.75;;;19.40;99.90;;;;;;5045247;28;20743;-77
2022/08/10 00:14:08;;;;;;;8.35;4.60;;;19.40;99.90;;;;;;5047880;28;20224;-78
2022/08/10 00:16:58;;;;;;;8.85;4.90;;;19.50;99.90;;;;;;5061670;28;20224;-77
2022/08/10 00:19:47;;;;;;;6.10;5.15;;;19.50;99.90;;;;;;5057611;28;20228;-77
2022/08/10 00:22:55;;;;;;;8.18;5.28;;;19.40;99.90;;;;;;5047760;28;20235;-77
2022/08/10 00:25:45;;;;;;;6.63;4.88;;;19.50;99.90;;;;;;5061456;28;20232;-77
2022/08/10 00:28:34;;;;;;;6.40;4.90;;;19.40;99.90;;;;;;5059933;28;20294;-79
2022/08/10 00:31:22;;;;;;;7.93;4.70;;;19.40;99.90;;;;;;5060182;28;20233;-79
2022/08/10 00:34:12;;;;;;;5.30;4.65;;;19.40;99.90;;;;;;5059263;28;20624;-79
2022/08/10 00:37:01;;;;;;;8.65;5.13;;;19.30;99.90;;;;;;5045239;28;20213;-78
2022/08/10 00:39:50;;;;;;;9.80;4.35;;;19.30;99.90;;;;;;5066098;28;20227;-78
2022/08/10 00:42:39;;;;;;;6.95;4.70;;;19.30;99.90;;;;;;5063151;28;20688;-78
2022/08/10 00:45:27;;;;;;;7.80;4.78;;;19.20;99.90;;;;;;5056013;28;20228;-78
2022/08/10 00:48:16;;;;;;;8.07;5.07;;;19.20;99.90;;;;;;5060250;28;20236;-77
2022/08/10 00:51:06;;;;;;;10.10;4.82;;;19.10;99.90;;;;;;5045549;28;20213;-78
2022/08/10 00:53:54;;;;;;;5.20;4.70;;;19.00;99.90;;;;;;5059593;28;20238;-78
2022/08/10 00:56:43;;;;;;;5.60;4.20;;;19.00;99.90;;;;;;5048526;28;20220;-78
2022/08/10 00:59:52;;;;;;;7.50;4.63;;;18.90;99.90;;;;;;5049341;28;21613;-78
2022/08/10 01:02:47;;;;;;;9.95;4.75;;;18.80;99.90;;;;;;5060270;28;20693;-77
2022/08/10 01:05:39;;;;;;;10.13;5.15;;;18.80;99.90;;;;;;5061755;28;20213;-79
2022/08/10 01:08:50;;;;;;;9.95;5.35;;;18.80;99.90;;;;;;5038031;28;20228;-78
2022/08/10 01:11:46;;;;;;;5.88;4.60;;;18.70;99.90;;;;;;5057948;28;20216;-79
2022/08/10 01:15:02;;;;;;;7.72;4.53;;;18.70;99.90;;;;;;5059164;28;20896;-79
2022/08/10 01:17:56;;;;;;;9.23;5.22;;;18.80;99.90;;;;;;5059821;28;20217;-79
2022/08/10 01:21:04;;;;;;;10.88;4.88;;;18.60;99.90;;;;;;5048586;28;20227;-79
2022/08/10 01:24:07;;;;;;;8.60;4.65;;;18.60;99.90;;;;;;5045942;28;20529;-78
2022/08/10 01:27:12;;;;;;;7.30;4.80;;;18.50;99.90;;;;;;5057387;28;20235;-79
2022/08/10 01:30:06;;;;;;;7.15;4.63;;;18.50;99.90;;;;;;5045833;28;20228;-78
2022/08/10 01:33:09;;;;;;;6.13;4.72;;;18.50;99.90;;;;;;5045004;28;20235;-79
2022/08/10 01:36:01;;;;;;;8.80;5.30;;;18.50;99.90;;;;;;5057235;28;20215;-78
2022/08/10 01:38:52;;;;;;;8.25;4.95;;;18.40;99.90;;;;;;5056947;28;20248;-79
2022/08/10 01:41:44;;;;;;;7.97;4.60;;;18.40;99.90;;;;;;5044051;28;20271;-78
2022/08/10 01:44:37;;;;;;;6.50;4.88;;;18.40;99.90;;;;;;5056220;28;20239;-77
2022/08/10 01:50:41;;;;;;;8.98;5.20;;;18.30;99.90;;;;;;5017185;28;20228;-80
2022/08/10 01:53:51;;;;;;;9.75;5.07;;;18.10;99.90;;;;;;5019339;28;20633;-78
2022/08/10 01:56:43;;;;;;;5.03;4.22;;;18.20;99.90;;;;;;5021976;28;20235;-78
2022/08/10 01:59:36;;;;;;;12.80;5.10;;;18.10;99.90;;;;;;5031769;28;20248;-78
2022/08/10 02:02:29;;;;;;;7.75;4.63;;;18.20;99.90;;;;;;5033859;28;20218;-77
2022/08/10 02:05:18;;;;;;;7.03;4.93;;;18.10;99.90;;;;;;5015412;28;20225;-76
2022/08/10 02:08:11;;;;;;;5.80;5.00;;;18.10;99.90;;;;;;5032940;28;20226;-77
2022/08/10 02:11:02;;;;;;;6.70;4.97;;;18.10;99.90;;;;;;5032837;28;20218;-77
2022/08/10 02:13:52;;;;;;;5.93;4.82;;;18.00;99.90;;;;;;5016033;28;20225;-76
2022/08/10 02:16:44;;;;;;;7.03;4.78;;;18.10;99.90;;;;;;5022384;28;20221;-77
2022/08/10 02:19:36;;;;;;;7.68;4.78;;;18.00;99.90;;;;;;5026716;28;20566;-77
2022/08/10 02:22:27;;;;;;;6.22;4.63;;;17.90;99.90;;;;;;5036919;28;20228;-78
2022/08/10 02:25:27;;;;;;;6.88;5.00;;;18.00;99.90;;;;;;5020736;28;20236;-78
2022/08/10 02:28:33;;;;;;;8.35;5.15;;;17.90;99.90;;;;;;5020379;28;20227;-78
2022/08/10 02:31:28;;;;;;;6.38;4.68;;;17.90;99.90;;;;;;5020087;28;20618;-78
2022/08/10 02:34:19;;;;;;;7.78;5.07;;;17.80;99.90;;;;;;5019213;28;20312;-77
2022/08/10 02:37:10;;;;;;;6.07;4.90;;;17.80;99.90;;;;;;5032406;28;20324;-78
2022/08/10 02:40:00;;;;;;;9.38;5.13;;;17.70;99.90;;;;;;5019355;28;20308;-78
2022/08/10 02:42:58;;;;;;;9.93;4.80;;;17.60;99.90;;;;;;5021206;28;20230;-78
2022/08/10 02:46:12;;;;;;;6.55;4.47;;;17.60;99.90;;;;;;5015759;28;20244;-78
2022/08/10 02:49:12;;;;;;;7.03;4.35;;;17.70;99.90;;;;;;5017498;28;20236;-79
2022/08/10 02:52:06;;;;;;;9.68;4.70;;;17.70;99.90;;;;;;5018820;28;20372;-79
2022/08/10 02:55:03;;;;;;;7.60;4.88;;;17.60;99.90;;;;;;5028101;28;20754;-77
2022/08/10 02:58:10;;;;;;;6.55;4.82;;;17.60;99.90;;;;;;5033838;28;20226;-78
2022/08/10 03:01:12;;;;;;;6.82;4.65;;;17.50;99.90;;;;;;5029303;28;20225;-79
2022/08/10 03:04:04;;;;;;;7.88;4.55;;;17.60;99.90;;;;;;5018653;28;20618;-78
2022/08/10 03:06:57;;;;;;;7.03;4.78;;;17.60;99.90;;;;;;5017964;28;20641;-78
2022/08/10 03:09:47;;;;;;;7.22;4.63;;;17.50;99.90;;;;;;5029036;28;20222;-77
2022/08/10 03:12:39;;;;;;;6.80;4.95;;;17.50;99.90;;;;;;5033569;28;20295;-79
2022/08/10 03:15:29;;;;;;;7.05;4.38;;;17.50;99.90;;;;;;5014617;28;20611;-78
2022/08/10 03:18:19;;;;;;;6.75;4.68;;;17.50;99.90;;;;;;5019866;28;20229;-78
2022/08/10 03:21:09;;;;;;;6.53;4.40;;;17.40;99.90;;;;;;5014744;28;20225;-78
2022/08/10 03:24:01;;;;;;;7.40;4.65;;;17.40;99.90;;;;;;5022634;28;20331;-78
2022/08/10 03:27:10;;;;;;;6.07;4.93;;;17.30;99.90;;;;;;5027050;28;20232;-79
2022/08/10 03:30:02;;;;;;;7.05;4.78;;;17.30;99.90;;;;;;5021387;28;20245;-79
2022/08/10 03:33:12;;;;;;;8.02;4.78;;;17.30;99.90;;;;;;5027263;28;20598;-78
2022/08/10 03:36:01;;;;;;;6.57;4.60;;;17.30;99.90;;;;;;5023038;28;20272;-78
2022/08/10 03:39:10;;;;;;;6.10;4.72;;;17.40;99.90;;;;;;5020404;28;20221;-77
2022/08/10 03:42:04;;;;;;;8.73;4.93;;;17.40;99.90;;;;;;5025394;28;20230;-77
2022/08/10 03:44:54;;;;;;;7.53;5.05;;;17.40;99.90;;;;;;5017971;28;20233;-78
2022/08/10 03:47:45;;;;;;;7.35;4.63;;;17.60;99.90;;;;;;5015961;28;20244;-78
2022/08/10 03:50:36;;;;;;;7.43;4.53;;;17.50;99.90;;;;;;5019741;28;20225;-78
2022/08/10 03:53:41;;;;;;;7.70;4.20;;;17.50;99.90;;;;;;5019241;28;20770;-77
2022/08/10 03:56:50;;;;;;;5.60;4.60;;;17.40;99.90;;;;;;5019231;28;20220;-78
2022/08/10 03:59:39;;;;;;;6.93;4.43;;;17.30;99.90;;;;;;5018076;28;20312;-77
2022/08/10 04:02:28;;;;;;;8.55;5.60;;;17.40;99.90;;;;;;5017506;28;20225;-77
2022/08/10 04:05:37;;;;;;;6.70;4.50;;;17.20;99.90;;;;;;5020120;28;20312;-76
2022/08/10 04:08:26;;;;;;;7.38;4.70;;;17.20;99.90;;;;;;5021843;28;20290;-77
2022/08/10 04:11:15;;;;;;;5.43;4.88;;;17.30;99.90;;;;;;5018240;28;20241;-77
2022/08/10 04:14:03;;;;;;;5.68;4.45;;;17.40;99.90;;;;;;5031117;28;20595;-78
2022/08/10 04:16:52;;;;;;;8.75;5.47;;;17.50;99.90;;;;;;5021370;28;20699;-78
2022/08/10 04:19:45;;;;;;;7.50;5.00;;;17.40;99.90;;;;;;5019077;28;20292;-78
2022/08/10 04:22:37;;;;;;;6.93;4.93;;;17.40;99.90;;;;;;5034775;28;20240;-78
2022/08/10 04:25:27;;;;;;;8.07;4.90;;;17.50;99.90;;;;;;5031297;28;20233;-78
2022/08/10 04:28:16;;;;;;;8.00;4.85;;;17.70;99.90;;;;;;5021614;28;20221;-79
2022/08/10 04:31:07;;;;;;;10.45;4.63;;;17.60;99.90;;;;;;5022836;28;20233;-77
2022/08/10 04:34:02;;;;;;;7.00;5.07;;;17.60;99.90;;;;;;5032080;28;20236;-78
2022/08/10 04:36:59;;;;;;;9.65;5.28;;;17.50;99.90;;;;;;5024337;28;20225;-78
2022/08/10 04:39:54;;;;;;;9.10;5.43;;;17.60;99.90;;;;;;5023883;28;20233;-78
2022/08/10 04:42:43;;;;;;;8.65;5.35;;;17.70;99.90;;;;;;5031675;28;20225;-78
2022/08/10 04:45:33;;;;;;;6.95;5.22;;;17.90;99.90;;;;;;5033940;28;20222;-77
2022/08/10 04:48:38;;;;;;;8.30;5.05;;;17.80;99.90;;;;;;5017962;28;20432;-78
2022/08/10 04:51:47;;;;;;;6.95;5.47;;;17.80;99.90;;;;;;5016680;28;20222;-78
2022/08/10 04:54:36;;;;;;;7.63;4.85;;;17.80;99.90;;;;;;5027114;28;20222;-79
2022/08/10 04:57:26;;;;;;;8.25;5.15;;;17.70;99.90;;;;;;5032807;28;20230;-78
2022/08/10 05:00:15;;;;;;;7.32;5.43;;;17.90;99.90;;;;;;5016997;28;20218;-79
2022/08/10 05:03:06;;;;;;;7.72;4.90;;;18.00;99.90;;;;;;5021244;28;20740;-79
2022/08/10 05:05:55;;;;;;;7.40;5.43;;;18.30;99.90;;;;;;5021352;28;20230;-79
2022/08/10 05:08:48;;;;;;;6.93;5.05;;;18.20;99.90;;;;;;5020980;28;20233;-78
2022/08/10 05:11:37;;;;;;;6.40;4.40;;;18.30;99.90;;;;;;5029480;28;20228;-77
2022/08/10 05:14:27;;;;;;;5.97;4.50;;;18.30;99.90;;;;;;5020869;28;20720;-77
2022/08/10 05:17:15;;;;;;;8.55;4.65;;;18.30;99.90;;;;;;5036036;28;20589;-78
2022/08/10 05:20:06;;;;;;;5.28;4.25;;;18.60;99.90;;;;;;5018172;28;20222;-78
2022/08/10 05:22:55;;;;;;;6.22;4.53;;;18.70;99.90;;;;;;5034392;28;20853;-79
2022/08/10 05:25:44;;;;;;;8.88;4.70;;;18.60;99.90;;;;;;5020553;28;20221;-77
2022/08/10 05:28:32;;;;;;;8.93;4.18;;;18.60;99.90;;;;;;5019787;28;20386;-80
2022/08/10 05:31:23;;;;;;;9.18;4.60;;;18.70;99.90;;;;;;5022094;28;20224;-79
2022/08/10 05:34:13;;;;;;;8.93;4.85;;;18.90;99.90;;;;;;5032505;28;20689;-82
2022/08/10 05:37:09;;;;;;;5.30;3.90;;;18.90;99.90;;;;;;5020480;28;20230;-81
2022/08/10 05:40:18;;;;;;;5.57;4.20;;;19.00;99.90;;;;;;5030391;28;20720;-75
2022/08/10 05:43:07;;;;;;;7.05;4.43;;;19.20;99.90;;;;;;5023123;28;20737;-72
2022/08/10 05:45:56;;;;;;;6.25;4.13;;;19.30;99.90;;;;;;5032103;28;20226;-75
2022/08/10 05:49:05;;;;;;;8.20;4.68;;;19.40;99.90;;;;;;5028452;28;20252;-73
2022/08/10 05:51:54;;;;;;;8.23;4.72;;;19.20;99.90;;;;;;5037493;28;20229;-73
2022/08/10 05:54:43;;;;;;;8.00;4.82;;;19.60;99.90;;;;;;5041868;28;20271;-73
2022/08/10 05:57:35;;;;;;;6.72;4.20;;;19.60;99.90;;;;;;5038761;28;20231;-75
2022/08/10 06:00:25;;;;;;;7.47;4.60;;;19.60;99.90;;;;;;5040891;28;20260;-76
2022/08/10 06:03:37;;;;;;;7.20;4.15;;;19.60;99.90;;;;;;5044736;28;20223;-76
2022/08/10 06:06:29;;;;;;;8.57;4.20;;;20.00;99.90;;;;;;5038699;28;20288;-76
2022/08/10 06:09:20;;;;;;;5.45;3.92;;;20.60;99.90;;;;;;5050080;28;20225;-74
2022/08/10 06:12:11;;;;;;;9.48;4.22;;;21.40;99.90;;;;;;5039159;28;20229;-74
2022/08/10 06:15:18;;;;;;;8.27;4.68;;;21.30;99.90;;;;;;5039508;28;20222;-75
2022/08/10 06:18:11;;;;;;;6.20;4.22;;;20.70;99.90;;;;;;5037618;28;20979;-75
2022/08/10 06:21:01;;;;;;;10.13;4.10;;;20.20;99.90;;;;;;5042748;28;20228;-73
2022/08/10 06:23:52;;;;;;;9.70;4.50;;;20.10;99.90;;;;;;5038145;28;20853;-74
2022/08/10 06:26:41;;;;;;;11.20;4.30;;;19.80;99.90;;;;;;5039786;28;20294;-74
2022/08/10 06:29:33;;;;;;;6.82;4.28;;;20.00;99.90;;;;;;5020393;28;20225;-72
2022/08/10 06:32:27;;;;;;;11.63;5.40;;;20.20;99.90;;;;;;5041644;28;20824;-73
2022/08/10 06:35:17;;;;;;;6.40;3.95;;;20.20;99.90;;;;;;5054295;28;20593;-73
2022/08/10 06:38:08;;;;;;;7.63;4.13;;;20.00;99.90;;;;;;5038920;28;20217;-74
2022/08/10 06:41:02;;;;;;;13.63;4.50;;;20.20;99.90;;;;;;5035968;28;20236;-72
2022/08/10 06:43:57;;;;;;;7.00;3.92;;;21.50;99.90;;;;;;5040252;28;20228;-74
2022/08/10 06:46:50;;;;;;;4.88;3.95;;;22.10;99.90;;;;;;5033872;28;21013;-74
2022/08/10 06:49:39;;;;;;;10.13;3.90;;;22.20;99.90;;;;;;5029695;28;20224;-74
2022/08/10 06:52:30;;;;;;;8.95;3.85;;;22.10;99.90;;;;;;5050868;28;20225;-73
2022/08/10 06:55:21;;;;;;;9.30;3.70;;;21.70;99.90;;;;;;5035649;28;20228;-73
2022/08/10 06:58:35;;;;;;;8.05;3.72;;;21.60;99.90;;;;;;5035186;28;20359;-72
2022/08/10 07:01:28;;;;;;;11.30;3.50;;;21.20;99.90;;;;;;5046020;28;20225;-74
2022/08/10 07:04:23;;;;;;;6.80;3.60;;;21.40;99.90;;;;;;5033987;28;20734;-74
2022/08/10 07:07:29;;;;;;;7.72;3.70;;;21.30;99.90;;;;;;5038700;28;20499;-72
2022/08/10 07:10:24;;;;;;;7.07;3.58;;;21.30;99.90;;;;;;5033405;28;20232;-74
2022/08/10 07:13:31;;;;;;;11.02;4.38;;;21.70;99.90;;;;;;5034554;28;20646;-74
2022/08/10 07:16:42;;;;;;;9.52;4.22;;;21.80;99.90;;;;;;5035239;28;20225;-74
2022/08/10 07:19:32;;;;;;;15.05;3.70;;;22.10;99.90;;;;;;5035824;28;20739;-74
2022/08/10 07:22:40;;;;;;;6.22;2.75;;;22.10;99.90;;;;;;5048172;28;20220;-73
2022/08/10 07:25:51;;;;;;;4.85;2.50;;;22.30;99.90;;;;;;5035801;28;20662;-75
2022/08/10 07:28:42;;;;;;;8.02;3.00;;;22.30;99.90;;;;;;5020963;28;20229;-74
2022/08/10 07:31:37;;;;;;;6.85;2.92;;;22.10;99.90;;;;;;5035460;28;20327;-73
2022/08/10 07:34:46;;;;;;;6.43;2.78;;;22.10;99.90;;;;;;5034576;28;20831;-73
2022/08/10 07:37:37;;;;;;;5.00;2.58;;;22.40;99.90;;;;;;5033366;28;20743;-74
2022/08/10 07:40:26;;;;;;;7.28;3.03;;;22.60;99.90;;;;;;5034232;28;20225;-74
2022/08/10 07:43:16;;;;;;;14.77;3.28;;;22.80;99.90;;;;;;5034140;28;20268;-73
2022/08/10 07:46:12;;;;;;;4.82;2.25;;;22.40;99.90;;;;;;5041428;28;20224;-75
2022/08/10 07:49:06;;;;;;;6.50;2.80;;;22.10;99.90;;;;;;5042177;28;20298;-73
2022/08/10 07:52:09;;;;;;;10.48;2.63;;;21.80;99.90;;;;;;5050252;28;20295;-74
2022/08/10 07:54:59;;;;;;;6.68;2.40;;;22.00;99.90;;;;;;5053176;28;20709;-72
2022/08/10 07:57:51;;;;;;;5.72;2.20;;;22.80;99.90;;;;;;5055746;28;20798;-73
2022/08/10 08:00:40;;;;;;;5.07;2.50;;;22.70;99.90;;;;;;5053667;28;20213;-73
2022/08/10 08:03:32;;;;;;;6.95;2.65;;;22.70;99.90;;;;;;5056081;28;20231;-74
2022/08/10 08:06:21;;;;;;;15.77;3.08;;;22.90;99.90;;;;;;5051160;28;20281;-74
2022/08/10 08:09:10;;;;;;;6.45;2.78;;;22.90;99.90;;;;;;5043090;28;20451;-74
2022/08/10 08:12:00;;;;;;;11.23;3.30;;;22.50;99.90;;;;;;5055158;28;20223;-73
2022/08/10 08:14:50;;;;;;;14.43;3.20;;;22.40;99.90;;;;;;5040421;28;20219;-73
2022/08/10 08:17:40;;;;;;;5.35;3.42;;;22.50;99.90;;;;;;5057882;28;20220;-74
2022/08/10 08:20:31;;;;;;;4.43;2.60;;;22.70;99.90;;;;;;5059257;28;20239;-74
2022/08/10 08:23:20;;;;;;;4.82;2.58;;;23.70;99.90;;;;;;5056326;28;20740;-74
2022/08/10 08:26:30;;;;;;;4.60;2.53;;;24.30;99.90;;;;;;5054678;28;20596;-74
2022/08/10 08:29:23;;;;;;;4.53;2.45;;;25.30;99.90;;;;;;5056822;28;20231;-73
2022/08/10 08:32:15;;;;;;;3.88;2.03;;;24.50;99.90;;;;;;5058339;28;20220;-74
2022/08/10 08:35:07;;;;;;;4.15;1.70;;;24.80;99.90;;;;;;5045200;28;20228;-70
2022/08/10 08:37:58;;;;;;;3.55;2.03;;;25.40;99.90;;;;;;5052587;28;20592;-74
2022/08/10 08:41:24;;;;;;;4.22;1.90;;;25.70;99.90;;;;;;5037162;28;20220;-75
2022/08/10 08:44:21;;;;;;;2.65;1.90;;;24.90;99.90;;;;;;5056532;28;20216;-72
2022/08/10 08:47:30;;;;;;;2.70;1.80;;;25.40;99.90;;;;;;5054424;28;20254;-71
2022/08/10 08:50:56;;;;;;;3.08;1.92;;;26.50;99.90;;;;;;5040952;28;20254;-70
2022/08/10 08:54:00;;;;;;;4.90;2.33;;;26.00;99.70;;;;;;5056089;28;20227;-74
2022/08/10 08:57:03;;;;;;;3.35;2.30;;;25.20;99.90;;;;;;5040038;28;20247;-75
2022/08/10 09:00:04;;;;;;;3.25;2.10;;;25.30;99.90;;;;;;5057048;28;20225;-74
2022/08/10 09:03:26;;;;;;;3.47;2.00;;;24.90;99.90;;;;;;5036833;28;20236;-74
2022/08/10 09:06:42;;;;;;;5.60;2.70;;;24.20;99.90;;;;;;5054108;28;20228;-72
2022/08/10 09:10:03;;;;;;;1.90;1.65;;;25.60;99.90;;;;;;5055799;28;20370;-72
2022/08/10 09:12:59;;;;;;;3.35;1.90;;;26.30;96.90;;;;;;5060252;28;20224;-72
2022/08/10 09:15:54;;;;;;;4.30;2.10;;;26.60;96.20;;;;;;5057265;28;20220;-72
2022/08/10 09:18:52;;;;;;;5.50;1.90;;;24.80;99.90;;;;;;5043497;28;20217;-73
2022/08/10 09:21:48;;;;;;;7.97;2.28;;;24.40;99.90;;;;;;5054272;28;20323;-72
2022/08/10 09:25:00;;;;;;;5.07;1.80;;;24.10;99.90;;;;;;5038704;28;20558;-73
2022/08/10 09:27:56;;;;;;;3.03;1.95;;;24.10;99.90;;;;;;5056907;28;20224;-73
2022/08/10 09:30:53;;;;;;;3.75;2.20;;;24.00;99.90;;;;;;5054718;28;20232;-73
2022/08/10 09:34:10;;;;;;;3.97;1.75;;;25.90;99.90;;;;;;5055723;28;20298;-72
2022/08/10 09:37:28;;;;;;;2.60;1.58;;;27.00;94.20;;;;;;5048128;28;20300;-73
2022/08/10 09:40:48;;;;;;;2.08;1.70;;;27.30;93.20;;;;;;5056744;28;20216;-73
2022/08/10 09:43:56;;;;;;;4.88;1.90;;;25.40;93.60;;;;;;5056007;28;20223;-72
2022/08/10 09:46:57;;;;;;;2.88;1.90;;;27.20;93.00;;;;;;5037606;28;20596;-73
2022/08/10 09:49:59;;;;;;;2.90;1.52;;;27.10;91.60;;;;;;5037379;28;20258;-73
2022/08/10 09:53:07;;;;;;;2.05;1.70;;;27.00;90.80;;;;;;5053088;28;20237;-73
2022/08/10 09:56:13;;;;;;;2.75;1.60;;;28.40;90.50;;;;;;5040327;28;20223;-73
2022/08/10 09:59:14;;;;;;;3.88;1.70;;;30.20;85.20;;;;;;5038476;28;20255;-75
2022/08/10 10:02:32;;;;;;;4.43;2.00;;;30.00;77.90;;;;;;5038275;28;20224;-75
2022/08/10 10:05:50;;;;;;;3.42;1.80;;;27.70;84.00;;;;;;5054208;28;20273;-72
2022/08/10 10:08:48;;;;;;;5.57;2.20;;;26.50;90.30;;;;;;5056827;28;20220;-73
2022/08/10 10:12:15;;;;;;;6.50;2.33;;;26.00;90.60;;;;;;5052341;28;20239;-73
2022/08/10 10:15:22;;;;;;;5.80;2.67;;;26.30;91.00;;;;;;5053498;28;20220;-72
2022/08/10 10:18:26;;;;;;;4.80;2.28;;;25.50;93.50;;;;;;5039682;28;20227;-74
2022/08/10 10:21:25;;;;;;;3.38;2.10;;;25.30;95.20;;;;;;5039769;28;20341;-73
2022/08/10 10:24:42;;;;;;;3.65;2.10;;;24.80;96.30;;;;;;5052566;28;20303;-73
2022/08/10 10:27:40;;;;;;;6.13;2.17;;;26.70;96.30;;;;;;5053232;28;20220;-73
2022/08/10 10:30:36;;;;;;;2.45;1.67;;;29.30;89.40;;;;;;5051621;28;21503;-72
2022/08/10 10:33:33;;;;;;;2.47;2.13;;;31.70;77.40;;;;;;5051798;28;20322;-73
2022/08/10 10:36:23;;;;;;;4.68;2.28;;;32.30;72.80;;;;;;5038604;28;20247;-74
2022/08/10 10:39:14;;;;;;;4.75;2.17;;;34.10;68.10;;;;;;5038817;28;20228;-73
2022/08/10 10:42:16;;;;;;;5.18;2.08;;;31.60;62.20;;;;;;5043098;28;20240;-74
2022/08/10 10:45:34;;;;;;;3.13;1.63;;;28.30;69.50;;;;;;5056775;28;20582;-73
2022/08/10 10:48:38;;;;;;;3.22;2.03;;;28.80;73.50;;;;;;5060469;28;20231;-72
2022/08/10 10:51:32;;;;;;;3.17;1.92;;;31.50;69.50;;;;;;5041859;28;20239;-72
2022/08/10 10:54:28;;;;;;;7.40;1.80;;;32.70;64.30;;;;;;5058027;28;20463;-74
2022/08/10 10:57:24;;;;;;;4.03;1.80;;;34.50;62.50;;;;;;5061980;28;20212;-73
2022/08/10 11:00:43;;;;;;;2.65;1.73;;;35.60;59.10;;;;;;5058514;28;20228;-75
2022/08/10 11:03:47;;;;;;;2.75;1.50;;;35.40;55.50;;;;;;5038046;28;20962;-74
2022/08/10 11:06:49;;;;;;;2.03;1.63;;;35.50;53.60;;;;;;5057603;28;20302;-73
2022/08/10 11:09:42;;;;;;;3.72;2.15;;;35.10;52.60;;;;;;5056614;28;20337;-74
2022/08/10 11:13:01;;;;;;;5.32;2.30;;;34.20;57.00;;;;;;5060438;28;20220;-75
2022/08/10 11:16:17;;;;;;;7.45;2.35;;;31.80;60.80;;;;;;5042040;28;20897;-75
2022/08/10 11:19:14;;;;;;;4.80;1.92;;;29.70;64.50;;;;;;5059159;28;20232;-74
2022/08/10 11:22:12;;;;;;;6.35;2.22;;;28.20;67.40;;;;;;5041599;28;20230;-74
2022/08/10 11:25:10;;;;;;;3.03;2.00;;;27.80;70.30;;;;;;5045294;28;20223;-74
2022/08/10 11:28:12;;;;;;;3.63;1.83;;;27.60;72.60;;;;;;5043754;28;20239;-74
2022/08/10 11:31:06;;;;;;;4.50;2.10;;;27.50;72.00;;;;;;5058198;28;20710;-75
2022/08/10 11:34:00;;;;;;;4.88;2.03;;;27.10;75.10;;;;;;5063310;28;20227;-74
2022/08/10 11:37:18;;;;;;;5.63;2.47;;;26.90;74.70;;;;;;5059474;28;20216;-74
2022/08/10 11:40:15;;;;;;;8.00;2.60;;;29.20;74.50;;;;;;5049192;28;20221;-76
2022/08/10 11:43:10;;;;;;;9.35;2.20;;;28.40;73.10;;;;;;5066677;28;20824;-73
2022/08/10 11:46:09;;;;;;;9.57;2.47;;;29.40;74.50;;;;;;5048374;28;20589;-74
2022/08/10 11:49:06;;;;;;;8.35;2.20;;;32.50;68.50;;;;;;5041669;28;20327;-73
2022/08/10 11:51:57;;;;;;;2.97;2.05;;;35.20;60.00;;;;;;5060700;28;20556;-73
2022/08/10 11:54:52;;;;;;;4.22;2.67;;;36.50;55.60;;;;;;5064152;28;20227;-74
2022/08/10 11:57:43;;;;;;;3.65;1.80;;;38.50;53.20;;;;;;5060066;28;20215;-73
2022/08/10 12:00:41;;;;;;;2.58;1.40;;;38.90;50.90;;;;;;5059767;28;20228;-75
2022/08/10 12:03:32;;;;;;;1.77;1.40;;;40.20;48.00;;;;;;5044884;28;20243;-75
2022/08/10 12:06:24;;;;;;;2.25;1.50;;;40.10;45.80;;;;;;5045060;28;20739;-75
2022/08/10 12:09:37;;;;;;;4.65;1.60;;;39.90;48.20;;;;;;5060694;28;20223;-74
2022/08/10 12:12:50;;;;;;;2.35;1.50;;;40.70;46.40;;;;;;5047488;28;20226;-75
2022/08/10 12:15:46;;;;;;;3.45;1.88;;;40.00;45.10;;;;;;5060546;28;20217;-75
2022/08/10 12:18:44;;;;;;;2.25;1.50;;;41.00;47.50;;;;;;5061587;28;20226;-75
2022/08/10 12:21:41;;;;;;;1.50;1.20;;;40.80;48.80;;;;;;5057093;28;20230;-75
2022/08/10 12:24:37;;;;;;;2.33;1.60;;;37.80;52.40;;;;;;5064006;28;20243;-74
2022/08/10 12:27:31;;;;;;;2.50;1.65;;;39.50;54.40;;;;;;5062024;28;20916;-74
2022/08/10 12:30:26;;;;;;;6.75;2.03;;;41.40;54.10;;;;;;5059113;28;20227;-76
2022/08/10 12:33:22;;;;;;;1.88;1.60;;;37.70;58.80;;;;;;5047206;28;20303;-75
2022/08/10 12:36:17;;;;;;;5.47;2.15;;;34.20;68.20;;;;;;5061533;28;20219;-76
2022/08/10 12:39:15;;;;;;;6.07;2.60;;;32.20;69.60;;;;;;5041584;28;20220;-75
2022/08/10 12:42:09;;;;;;;2.47;1.90;;;31.30;78.20;;;;;;5041492;28;20234;-75
2022/08/10 12:45:03;;;;;;;3.17;1.60;;;30.10;66.70;;;;;;5058710;28;20230;-75
2022/08/10 12:48:00;;;;;;;4.65;1.90;;;29.20;75.00;;;;;;5054518;28;20223;-76
2022/08/10 12:50:55;;;;;;;4.43;1.65;;;28.60;84.30;;;;;;5042616;28;20871;-76
2022/08/10 12:53:52;;;;;;;2.63;1.70;;;28.30;84.40;;;;;;5056835;28;20611;-76
2022/08/10 12:56:46;;;;;;;4.28;1.80;;;28.40;88.90;;;;;;5041812;28;20263;-75
2022/08/10 12:59:38;;;;;;;2.63;1.90;;;27.80;73.00;;;;;;5058184;28;20220;-75
2022/08/10 13:02:33;;;;;;;4.60;1.70;;;27.40;72.20;;;;;;5055202;28;20283;-75
2022/08/10 13:05:26;;;;;;;3.65;1.77;;;27.50;70.80;;;;;;5040800;28;20273;-75
2022/08/10 13:11:27;;;;;;;3.97;1.60;;;26.90;70.80;;;;;;5041904;28;20226;-74
2022/08/10 13:14:46;;;;;;;3.65;1.70;;;26.80;69.80;;;;;;5042114;28;20730;-75
2022/08/10 13:17:41;;;;;;;1.85;1.58;;;26.60;68.70;;;;;;5055491;28;20352;-75
2022/08/10 13:20:34;;;;;;;2.28;1.63;;;26.80;68.10;;;;;;5042928;28;20219;-75
2022/08/10 13:23:26;;;;;;;1.52;1.42;;;26.80;69.10;;;;;;5056041;28;20812;-75
2022/08/10 13:26:22;;;;;;;4.25;1.60;;;26.70;68.90;;;;;;5058057;28;20987;-75
2022/08/10 13:29:16;;;;;;;5.75;1.60;;;26.90;67.60;;;;;;5056024;28;20216;-75
2022/08/10 13:32:14;;;;;;;2.08;1.20;;;26.90;68.60;;;;;;5042060;28;20216;-74
2022/08/10 13:35:07;;;;;;;1.73;1.23;;;26.50;63.60;;;;;;5041541;28;20222;-75
2022/08/10 13:38:00;;;;;;;5.00;1.40;;;26.60;64.50;;;;;;5059185;28;20232;-74
2022/08/10 13:40:50;;;;;;;4.22;1.83;;;26.60;64.60;;;;;;5057950;28;20232;-73
2022/08/10 13:43:50;;;;;;;3.33;1.42;;;26.70;67.90;;;;;;5043086;28;20221;-74
2022/08/10 13:46:41;;;;;;;6.88;1.50;;;26.40;65.50;;;;;;5042650;28;20231;-74
2022/08/10 13:49:42;;;;;;;3.35;1.88;;;26.80;66.60;;;;;;5044888;28;20232;-74
2022/08/10 13:52:31;;;;;;;4.07;2.00;;;26.50;68.90;;;;;;5056120;28;20231;-74
2022/08/10 13:55:23;;;;;;;4.97;2.05;;;25.70;74.50;;;;;;5056236;28;20220;-76
2022/08/10 13:58:14;;;;;;;4.95;2.20;;;25.50;76.30;;;;;;5051881;28;20223;-79
2022/08/10 14:01:09;;;;;;;2.05;1.80;;;25.10;78.00;;;;;;5056409;28;20638;-75
2022/08/10 14:04:00;;;;;;;4.90;2.10;;;25.30;79.90;;;;;;5056666;28;20240;-76
2022/08/10 14:06:55;;;;;;;4.93;1.80;;;25.30;78.40;;;;;;5057975;28;20223;-77
2022/08/10 14:09:46;;;;;;;2.90;1.63;;;25.30;75.30;;;;;;5056817;28;20299;-76
2022/08/10 14:12:37;;;;;;;3.22;1.60;;;25.50;71.80;;;;;;5058703;28;20216;-76
2022/08/10 14:15:29;;;;;;;6.22;2.17;;;25.70;70.10;;;;;;5057158;28;20722;-78
2022/08/10 14:18:19;;;;;;;6.03;1.80;;;25.60;71.50;;;;;;5058191;28;20220;-76
2022/08/10 14:21:09;;;;;;;6.03;2.00;;;25.70;70.80;;;;;;5059824;28;20315;-74
2022/08/10 14:23:59;;;;;;;2.33;2.00;;;25.60;70.80;;;;;;5059271;28;20409;-76
2022/08/10 14:26:48;;;;;;;2.15;1.95;;;25.70;73.50;;;;;;5063075;28;20720;-77
2022/08/10 14:29:42;;;;;;;3.70;2.00;;;25.60;74.60;;;;;;5043316;28;20592;-77
2022/08/10 14:32:32;;;;;;;8.90;2.22;;;25.10;76.30;;;;;;5060462;28;20292;-76
2022/08/10 14:35:22;;;;;;;5.13;2.05;;;25.20;77.40;;;;;;5045171;28;20311;-76
2022/08/10 14:38:35;;;;;;;4.93;1.98;;;24.90;75.30;;;;;;5050238;28;20242;-76
2022/08/10 14:41:29;;;;;;;3.80;1.77;;;24.90;74.60;;;;;;5053852;28;20223;-76
2022/08/10 14:44:46;;;;;;;4.10;1.80;;;24.80;75.90;;;;;;5058845;28;20223;-76
2022/08/10 14:47:40;;;;;;;2.63;2.10;;;25.00;76.60;;;;;;5055187;28;20232;-75
2022/08/10 14:50:50;;;;;;;9.23;2.58;;;24.80;77.90;;;;;;5043376;28;20220;-75
2022/08/10 14:53:50;;;;;;;3.63;2.15;;;24.90;78.00;;;;;;5057306;28;20235;-77
2022/08/10 14:56:41;;;;;;;3.53;2.00;;;24.90;77.90;;;;;;5040220;28;20232;-76
2022/08/10 14:59:38;;;;;;;2.13;2.00;;;24.80;78.00;;;;;;5044000;28;20318;-78
2022/08/10 15:02:48;;;;;;;3.30;2.00;;;24.70;79.00;;;;;;5043599;28;20231;-76
2022/08/10 15:05:46;;;;;;;7.70;2.28;;;24.60;79.30;;;;;;5041239;28;20227;-76
2022/08/10 15:08:35;;;;;;;4.15;2.20;;;24.60;79.60;;;;;;5057609;28;20285;-77
2022/08/10 15:11:24;;;;;;;2.30;2.10;;;24.50;79.70;;;;;;5056588;28;20331;-77
2022/08/10 15:14:42;;;;;;;3.75;2.15;;;24.60;80.00;;;;;;5056873;28;21027;-75
2022/08/10 15:17:36;;;;;;;5.97;2.58;;;24.80;80.50;;;;;;5054894;28;20224;-75
2022/08/10 15:20:27;;;;;;;5.43;2.22;;;24.70;79.30;;;;;;5055181;28;20624;-76
2022/08/10 15:23:16;;;;;;;4.45;1.98;;;24.50;76.90;;;;;;5041802;28;20643;-76
2022/08/10 15:26:20;;;;;;;3.33;2.20;;;24.40;77.00;;;;;;5056920;28;20265;-76